Date StartTime U_cm/s V_cm/s W_cm/s Ustd_cm/s Vstd_cm/s Wstd_cm/s Uvar_(cm/s)^2 Vvar_(cm/s)^2 Wvar_(cm/s)^2 KE_(m/s)^2 TurbulentKE_(m/s)^2 HorizWindSpeed_cm/s FrictionSpeec_cm/s DragCoef SpeedOfSound_m/s SonicTemperature_C Pressure_mb 
06/14/2014  00:00:00     -115.486      192.533      -26.343       84.373       72.833       51.290     7118.722     5304.655     2630.667        3.307        0.753      224.513       43.530        0.038      340.985       15.381      861.285
06/14/2014  00:01:00     -139.516      225.093      -34.820       72.162       80.904       58.000     5207.304     6545.507     3364.001        4.323        0.756      264.824       46.073        0.030      340.994       15.397      861.296
06/14/2014  00:02:00     -169.311      196.142      -34.326       60.394       84.003       49.060     3647.463     7056.433     2406.876        4.071        0.656      259.109       48.411        0.035      340.992       15.392      861.298
06/14/2014  00:03:00     -145.217      202.635      -38.759      102.643      117.760       44.663    10535.610    13867.356     1994.805        4.502        1.320      249.296       55.942        0.050      341.035       15.466      861.296
06/14/2014  00:04:00     -137.878      171.529      -28.324       73.556       76.332       43.295     5410.461     5826.630     1874.481        3.117        0.656      220.074       39.700        0.033      341.021       15.441      861.310
06/14/2014  00:05:00     -142.632      191.378      -26.652       74.552       95.620       54.821     5558.021     9143.131     3005.370        3.769        0.885      238.683       38.125        0.026      340.985       15.382      861.301
06/14/2014  00:06:00     -137.211      198.806      -32.164       60.270       89.211       46.872     3632.455     7958.633     2196.980        3.658        0.689      241.559       40.693        0.028      340.968       15.351      861.300
06/14/2014  00:07:00     -169.159      166.924      -20.162       85.714       92.928       44.503     7346.965     8635.547     1980.561        3.742        0.898      237.652       46.432        0.038      340.941       15.308      861.320
06/14/2014  00:08:00     -146.690      198.068      -29.497      106.004      127.310       59.917    11236.757    16207.721     3590.078        4.632        1.552      246.473       63.985        0.067      340.977       15.369      861.326
06/14/2014  00:09:00     -135.908      168.542      -16.005       89.302       92.148       54.909     7974.827     8491.166     3015.037        3.330        0.974      216.512       54.410        0.063      340.938       15.300      861.331
06/14/2014  00:10:00     -161.425      186.054      -33.773       81.007       75.766       51.289     6562.166     5740.515     2630.611        3.837        0.747      246.321       53.922        0.048      340.959       15.338      861.335
06/14/2014  00:11:00     -194.764      194.491      -36.440      104.106       92.888       55.755    10838.123     8628.144     3108.608        4.983        1.129      275.245       42.011        0.023      340.979       15.371      861.350
06/14/2014  00:12:00     -103.938      151.064      -25.079       68.604       89.624       56.123     4706.502     8032.534     3149.843        2.507        0.794      183.368       34.892        0.036      340.969       15.353      861.343
06/14/2014  00:13:00     -214.179      263.731      -58.852       83.210      108.846       53.539     6923.942    11847.406     2866.419        7.026        1.082      339.745       55.311        0.027      340.921       15.272      861.363
06/14/2014  00:14:00     -161.979      221.471      -47.550      107.690       77.578       55.152    11597.157     6018.330     3041.775        4.910        1.033      274.384       62.825        0.052      340.890       15.219      861.374
06/14/2014  00:15:00     -119.236      218.210      -29.494       63.915       86.721       48.572     4085.110     7520.483     2359.274        3.833        0.698      248.662       47.601        0.037      340.853       15.157      861.382
06/14/2014  00:16:00     -180.827      173.930      -32.313       86.952       89.880       51.124     7560.592     8078.494     2613.638        4.112        0.913      250.898       38.933        0.024      340.911       15.254      861.382
06/14/2014  00:17:00     -224.352      269.122      -59.225       96.283       90.053       54.060     9270.433     8109.494     2922.443        7.328        1.015      350.372       57.025        0.026      340.867       15.181      861.391
06/14/2014  00:18:00     -172.116      247.430      -42.226      100.933      109.493       53.052    10187.545    11988.757     2814.562        5.880        1.250      301.406       51.138        0.029      340.826       15.110      861.384
06/14/2014  00:19:00     -176.886      281.017      -51.037       65.554       88.073       54.543     4297.372     7756.840     2974.919        6.394        0.751      332.053       43.210        0.017      340.804       15.072      861.379
06/14/2014  00:20:00     -161.324      256.885      -42.359       62.528       88.918       44.816     3909.764     7906.364     2008.459        5.381        0.691      303.340       41.532        0.019      340.820       15.101      861.386
06/14/2014  00:21:00      -84.317      196.557      -23.210       67.302       95.219       49.441     4529.615     9066.576     2444.372        3.116        0.802      213.878       37.486        0.031      340.801       15.071      861.382
06/14/2014  00:22:00      -89.058      100.923      -11.979       80.042       97.712       51.942     6406.656     9547.576     2697.942        1.845        0.933      134.599       44.960        0.112      340.846       15.147      861.379
06/14/2014  00:23:00     -123.089      192.689      -28.237       82.393      107.601       49.409     6788.628    11577.930     2441.251        3.694        1.040      228.648       41.259        0.033      340.757       14.996      861.374
06/14/2014  00:24:00     -163.754      254.784      -43.782       97.702      108.824       62.340     9545.713    11842.580     3886.300        5.946        1.264      302.870       63.081        0.043      340.760       14.998      861.382
06/14/2014  00:25:00     -103.838      199.194      -34.116       85.042       84.345       54.757     7232.136     7114.051     2998.323        3.448        0.867      224.635       49.839        0.049      340.744       14.973      861.380
06/14/2014  00:26:00     -119.579      137.252      -15.431       77.394      107.676       57.726     5989.794    11594.017     3332.242        2.714        1.046      182.036       60.623        0.111      340.760       15.001      861.367
06/14/2014  00:27:00     -132.531      121.666      -13.621       57.490       71.424       41.588     3305.157     5101.373     1729.587        2.134        0.507      179.908       34.074        0.036      340.747       14.979      861.373
06/14/2014  00:28:00     -103.667      202.647       -9.161       92.942      114.177       59.004     8638.143    13036.322     3481.488        3.852        1.258      227.623       51.768        0.052      340.732       14.952      861.382
06/14/2014  00:29:00     -120.575      176.979      -17.930       93.262       97.322       53.669     8697.718     9471.477     2880.352        3.361        1.052      214.149       56.655        0.070      340.718       14.930      861.394
06/14/2014  00:30:00     -183.741      235.342      -30.971       87.190      126.614       61.156     7602.047    16031.006     3740.075        5.873        1.369      298.575       58.233        0.038      340.729       14.948      861.406
06/14/2014  00:31:00     -100.433      173.734      -12.098       90.906       92.314       51.563     8263.943     8521.845     2658.737        2.993        0.972      200.675       48.872        0.059      340.705       14.907      861.418
06/14/2014  00:32:00     -147.223      199.494      -26.650      106.025       93.994       57.451    11241.203     8834.804     3300.627        4.277        1.169      247.936       62.110        0.063      340.684       14.873      861.423
06/14/2014  00:33:00     -201.664      258.096      -53.526      101.185       90.521       56.590    10238.486     8193.967     3202.469        6.589        1.082      327.539       58.097        0.031      340.697       14.893      861.426
06/14/2014  00:34:00     -174.115      248.590      -46.458       85.204      100.950       45.732     7259.752    10190.940     2091.394        5.690        0.977      303.502       39.159        0.017      340.663       14.834      861.433
06/14/2014  00:35:00     -170.705      208.556      -33.358       95.668      120.395       52.561     9152.461    14494.979     2762.676        5.007        1.321      269.510       52.599        0.038      340.684       14.872      861.435
06/14/2014  00:36:00     -172.556      244.157      -41.568       97.513      103.685       57.943     9508.801    10750.525     3357.339        5.736        1.181      298.979       62.192        0.043      340.653       14.819      861.432
06/14/2014  00:37:00     -193.595      217.000      -44.731      108.261      125.612       65.171    11720.397    15778.348     4247.212        5.915        1.587      290.806       84.315        0.084      340.666       14.841      861.437
06/14/2014  00:38:00     -166.213      212.221      -42.892       82.355      105.151       53.298     6782.363    11056.701     2840.682        4.759        1.034      269.564       52.726        0.038      340.637       14.793      861.440
06/14/2014  00:39:00     -167.211      233.264      -44.189       65.327      114.194       43.133     4267.570    13040.314     1860.421        5.174        0.958      287.005       40.452        0.020      340.640       14.795      861.433
06/14/2014  00:40:00     -144.519      180.313      -40.493       74.514      100.008       46.444     5552.345    10001.663     2157.005        3.637        0.886      231.081       39.469        0.029      340.627       14.776      861.433
06/14/2014  00:41:00     -131.564      150.859      -20.771       90.976       96.076       52.715     8276.707     9230.656     2778.825        3.039        1.014      200.169       58.420        0.085      340.607       14.742      861.438
06/14/2014  00:42:00     -160.713      220.606      -37.514       86.309       99.833       48.406     7449.198     9966.602     2343.152        4.783        0.988      272.939       36.475        0.018      340.607       14.740      861.437
06/14/2014  00:43:00     -142.641      229.571      -31.523       77.527       84.420       50.626     6010.438     7126.754     2563.031        4.487        0.785      270.277       42.523        0.025      340.575       14.686      861.439
06/14/2014  00:44:00     -168.648      180.729      -37.205       82.443       86.487       48.448     6796.868     7479.994     2347.223        3.955        0.831      247.194       44.262        0.032      340.591       14.713      861.433
06/14/2014  00:45:00     -179.024      214.911      -39.876       72.559       86.326       52.168     5264.859     7452.132     2721.481        4.763        0.772      279.708       47.377        0.029      340.572       14.681      861.431
06/14/2014  00:46:00     -124.436      233.563      -29.098       65.945      101.376       45.847     4348.683    10277.120     2101.950        4.380        0.836      264.643       46.496        0.031      340.574       14.686      861.429
06/14/2014  00:47:00     -183.254      330.459      -53.200       76.384      144.380       45.000     5834.539    20845.554     2025.041        8.715        1.435      377.870       47.422        0.016      340.544       14.633      861.432
06/14/2014  00:48:00     -182.076      222.466      -44.080       93.490       73.131       53.475     8740.449     5348.201     2859.594        5.076        0.847      287.477       52.665        0.034      340.569       14.677      861.440
06/14/2014  00:49:00     -112.553      211.210      -32.453       55.025       90.280       46.495     3027.803     8150.480     2161.773        3.583        0.667      239.328       35.713        0.022      340.593       14.717      861.449
06/14/2014  00:50:00     -141.663      237.148      -42.616       90.389      104.749       59.089     8170.125    10972.450     3491.494        5.037        1.132      276.238       46.295        0.028      340.588       14.709      861.450
06/14/2014  00:51:00     -171.135      195.901      -37.684       92.520       92.362       51.360     8559.952     8530.722     2637.838        4.440        0.986      260.123       47.574        0.033      340.613       14.750      861.454
06/14/2014  00:52:00     -161.386      186.226      -34.103       90.641       80.945       59.260     8215.749     6552.066     3511.768        4.008        0.914      246.425       49.630        0.041      340.622       14.765      861.482
06/14/2014  00:53:00     -170.599      187.353      -22.494       98.986      101.523       57.491     9798.252    10307.005     3305.267        4.406        1.171      253.387       58.795        0.054      340.598       14.726      861.480
06/14/2014  00:54:00     -178.860      252.744      -30.006       92.930      125.049       63.487     8636.005    15637.260     4030.653        6.253        1.415      309.629       71.726        0.054      340.580       14.695      861.493
06/14/2014  00:55:00     -156.164      255.297      -34.604       86.673      100.606       56.863     7512.252    10121.537     3233.410        5.581        1.043      299.272       54.949        0.034      340.555       14.652      861.507
06/14/2014  00:56:00     -152.360      236.266      -39.582       92.717      101.673       52.370     8596.476    10337.368     2742.599        5.113        1.084      281.132       50.831        0.033      340.566       14.672      861.515
06/14/2014  00:57:00     -212.140      227.170      -38.056      122.904       80.015       69.301    15105.373     6402.458     4802.696        6.218        1.316      310.821       74.369        0.057      340.574       14.685      861.526
06/14/2014  00:58:00     -218.958      202.250      -43.636      104.275      100.223       62.464    10873.348    10044.670     3901.705        5.778        1.241      298.073       59.408        0.040      340.595       14.719      861.540
06/14/2014  00:59:00     -172.800      232.514      -40.703       82.665       88.860       48.143     6833.505     7896.119     2317.795        5.131        0.852      289.694       40.595        0.020      340.566       14.671      861.538
06/14/2014  01:00:00     -164.004      195.103      -40.990       84.428      102.321       54.950     7128.145    10469.548     3019.491        4.363        1.031      254.877       56.949        0.050      340.563       14.666      861.540
06/14/2014  01:01:00     -216.211      243.924      -43.566      103.215       79.800       60.185    10653.320     6368.006     3622.258        6.439        1.032      325.954       54.469        0.028      340.595       14.720      861.550
06/14/2014  01:02:00     -119.151      226.657      -20.219       88.702      110.929       50.595     7868.044    12305.268     2559.870        4.435        1.137      256.067       43.910        0.029      340.562       14.665      861.546
06/14/2014  01:03:00     -106.915      252.357      -42.371       91.273      110.648       48.633     8330.789    12242.922     2365.129        4.992        1.147      274.071       33.812        0.015      340.565       14.669      861.533
06/14/2014  01:04:00     -104.357       71.826       -9.935       97.014       78.319       56.265     9411.689     6133.818     3165.718        1.743        0.936      126.686       46.868        0.137      340.551       14.650      861.519
06/14/2014  01:05:00     -133.975      169.416      -20.560       67.480       91.511       47.029     4553.509     8374.223     2211.689        3.110        0.757      215.988       47.098        0.048      340.580       14.695      861.506
06/14/2014  01:06:00     -152.137      260.752      -31.973       87.617      131.733       59.306     7676.674    17353.461     3517.259        6.035        1.427      301.889       55.887        0.034      340.550       14.646      861.500
06/14/2014  01:07:00     -151.221      208.325      -30.044       95.248       81.365       60.738     9072.192     6620.274     3689.152        4.327        0.969      257.424       51.302        0.040      340.547       14.638      861.480
06/14/2014  01:08:00     -148.049      245.933      -25.876       90.321       95.194       53.499     8157.859     9061.891     2862.158        5.157        1.004      287.056       59.152        0.042      340.495       14.552      861.464
06/14/2014  01:09:00     -154.779      235.084      -37.143       67.548       91.331       52.039     4562.759     8341.265     2708.076        4.810        0.781      281.462       38.651        0.019      340.509       14.574      861.451
06/14/2014  01:10:00     -129.362      201.466      -15.564       97.375      105.165       63.062     9481.853    11059.670     3976.753        4.104        1.226      239.422       70.138        0.086      340.494       14.550      861.432
06/14/2014  01:11:00     -191.458      212.078      -18.783      145.093      140.839       78.044    21052.018    19835.487     6090.918        6.447        2.349      285.715       72.483        0.064      340.555       14.654      861.417
06/14/2014  01:12:00     -227.923      295.703      -58.390       93.637       93.735       58.772     8767.811     8786.197     3454.123        8.190        1.050      373.349       52.196        0.020      340.524       14.599      861.405
06/14/2014  01:13:00     -181.697      214.883      -41.762      127.008      109.765       57.964    16131.044    12048.362     3359.851        5.623        1.577      281.404       54.844        0.038      340.515       14.586      861.419
06/14/2014  01:14:00     -158.840      205.922      -38.947       95.618       92.442       57.804     9142.878     8545.559     3341.344        4.509        1.051      260.065       61.272        0.056      340.519       14.592      861.422
06/14/2014  01:15:00     -128.031      249.276      -34.313       82.805       94.865       50.027     6856.613     8999.291     2502.677        4.903        0.918      280.233       49.884        0.032      340.474       14.515      861.419
06/14/2014  01:16:00     -166.515      198.248      -28.851       70.272      104.366       48.623     4938.171    10892.266     2364.210        4.302        0.910      258.901       52.219        0.041      340.497       14.555      861.426
06/14/2014  01:17:00     -179.971      251.401      -43.113      119.423      131.762       63.140    14261.933    17361.175     3986.659        6.652        1.780      309.179       55.295        0.032      340.460       14.493      861.445
06/14/2014  01:18:00      -93.920      183.593      -16.152       70.404       95.683       51.312     4956.776     9155.309     2632.912        2.976        0.837      206.222       59.315        0.083      340.427       14.438      861.449
06/14/2014  01:19:00      -97.298      191.014      -16.632       63.891      107.648       49.559     4082.080    11588.078     2456.131        3.217        0.906      214.367       53.922        0.063      340.458       14.491      861.452
06/14/2014  01:20:00     -157.690      251.301      -25.145      122.962       80.477       61.633    15119.699     6476.514     3798.677        5.702        1.270      296.678       45.790        0.024      340.444       14.465      861.469
06/14/2014  01:21:00     -128.019      185.519      -13.683       77.792      100.962       54.987     6051.529    10193.297     3023.579        3.513        0.963      225.402       51.703        0.053      340.428       14.437      861.479
06/14/2014  01:22:00     -127.758      135.827      -21.096       63.967       70.111       44.830     4091.802     4915.489     2009.766        2.311        0.551      186.470       45.270        0.059      340.421       14.428      861.482
06/14/2014  01:23:00     -173.351      214.114      -41.140       77.245       92.544       46.279     5966.832     8564.395     2141.704        4.713        0.834      275.491       49.749        0.033      340.408       14.405      861.492
06/14/2014  01:24:00     -166.940      176.350      -38.140      100.055      108.469       53.875    10011.073    11765.450     2902.517        4.255        1.234      242.834       53.572        0.049      340.410       14.408      861.503
06/14/2014  01:25:00     -149.001      159.484      -24.367      113.663       87.177       53.995    12919.283     7599.862     2915.413        3.583        1.172      218.258       69.825        0.102      340.405       14.400      861.493
06/14/2014  01:26:00     -140.916      199.558      -35.494       62.943       52.523       44.111     3961.770     2758.630     1945.811        3.480        0.433      244.296       35.510        0.021      340.362       14.327      861.487
06/14/2014  01:27:00     -150.787      201.881      -30.705       90.904       92.889       60.840     8263.498     8628.306     3701.468        4.251        1.030      251.978       67.057        0.071      340.383       14.363      861.484
06/14/2014  01:28:00      -71.744      215.807      -16.866       90.404       79.338       52.590     8172.831     6294.578     2765.692        3.462        0.862      227.420       51.108        0.051      340.375       14.348      861.459
06/14/2014  01:29:00     -167.982      180.755      -48.435       63.604       64.789       41.218     4045.436     4197.671     1698.955        3.659        0.497      246.759       31.618        0.016      340.401       14.392      861.449
06/14/2014  01:30:00     -138.808      257.692      -32.944       67.882       93.563       56.095     4608.016     8754.038     3146.657        5.163        0.825      292.700       34.134        0.014      340.349       14.306      861.441
06/14/2014  01:31:00     -118.924      134.909      -19.794       72.612       64.732       46.699     5272.535     4190.261     2180.756        2.219        0.582      179.842       44.592        0.061      340.354       14.316      861.441
06/14/2014  01:32:00     -151.685      192.946      -36.968       78.492       96.849       46.103     6161.031     9379.820     2125.475        3.963        0.883      245.431       42.955        0.031      340.363       14.329      861.421
06/14/2014  01:33:00      -79.551      170.366      -23.145       54.656       74.995       33.221     2987.284     5624.287     1103.618        2.280        0.486      188.024       29.879        0.025      340.320       14.258      861.409
06/14/2014  01:34:00     -101.918      178.266      -20.460       72.222       61.787       43.128     5216.076     3817.587     1860.059        2.674        0.545      205.344       33.923        0.027      340.285       14.197      861.394
06/14/2014  01:35:00      -83.081      187.239      -23.238       51.157       90.228       39.170     2617.065     8141.059     1534.280        2.739        0.615      204.843       42.658        0.043      340.270       14.171      861.381
06/14/2014  01:36:00     -124.164      105.427      -19.491       81.972       91.420       49.108     6719.379     8357.616     2411.601        2.220        0.874      162.885       54.620        0.112      340.317       14.254      861.363
06/14/2014  01:37:00     -106.807      139.006      -26.481       54.273       62.166       41.989     2945.562     3864.550     1763.077        2.000        0.429      175.301       29.872        0.029      340.280       14.191      861.353
06/14/2014  01:38:00     -127.914      129.033       -4.698       98.494       84.436       54.318     9701.156     7129.428     2950.471        2.640        0.989      181.691       59.279        0.106      340.294       14.213      861.364
06/14/2014  01:39:00     -119.317      115.757      -16.379       63.358       87.087       45.894     4014.197     7584.100     2106.300        2.080        0.685      166.241       47.995        0.083      340.310       14.241      861.361
06/14/2014  01:40:00      -93.962      133.330       -3.113       57.165       74.355       50.844     3267.834     5528.664     2585.129        1.900        0.569      163.113       29.456        0.033      340.258       14.152      861.370
06/14/2014  01:41:00      -98.835      157.114       -3.280       60.457       93.259       53.229     3655.030     8697.332     2833.292        2.482        0.759      185.615       43.415        0.055      340.238       14.118      861.374
06/14/2014  01:42:00     -130.802       91.273      -25.052       68.889       44.960       34.954     4745.686     2021.413     1221.777        1.703        0.399      159.499       27.073        0.029      340.290       14.207      861.389
06/14/2014  01:43:00     -161.929      106.097      -20.730       73.481       85.459       49.997     5399.525     7303.185     2499.665        2.655        0.760      193.592       48.182        0.062      340.346       14.299      861.402
06/14/2014  01:44:00     -129.562       98.138      -22.950       60.994       56.450       34.330     3720.263     3186.613     1178.525        1.751        0.404      162.534       27.219        0.028      340.274       14.180      861.408
06/14/2014  01:45:00     -108.306      175.397      -34.478       50.892       87.692       37.354     2590.027     7689.917     1395.318        2.768        0.584      206.141       30.252        0.022      340.197       14.048      861.404
06/14/2014  01:46:00      -75.635       94.614      -17.824       45.356       51.576       43.692     2057.211     2660.067     1909.026        1.081        0.331      121.130       33.089        0.075      340.208       14.071      861.395
06/14/2014  01:47:00     -109.519      182.347      -25.388      105.333       85.514       47.826    11094.997     7312.678     2287.304        3.329        1.035      212.708       51.720        0.059      340.200       14.053      861.405
06/14/2014  01:48:00      -89.124      149.928      -24.414       63.169       65.222       44.327     3990.380     4253.853     1964.908        2.061        0.510      174.418       38.385        0.048      340.190       14.038      861.400
06/14/2014  01:49:00      -88.335      108.397      -11.718       67.314       62.290       32.071     4531.205     3880.076     1028.518        1.456        0.472      139.831       28.614        0.042      340.230       14.105      861.398
06/14/2014  01:50:00      -46.353       43.007        0.940       57.180       47.404       32.978     3269.513     2247.167     1087.530        0.530        0.330       63.231       26.194        0.172      340.211       14.075      861.395
06/14/2014  01:51:00      -47.413       49.448      -10.476       32.638       47.703       23.721     1065.232     2275.566      562.692        0.435        0.195       68.506       18.808        0.075      340.216       14.083      861.406
06/14/2014  01:52:00      -87.907       64.331      -18.089       41.761       40.005       20.528     1744.011     1600.377      421.397        0.798        0.188      108.932       17.498        0.026      340.209       14.069      861.416
06/14/2014  01:53:00      -87.737       27.875       -9.006       44.944       35.748       30.808     2019.965     1277.901      949.150        0.640        0.212       92.059       18.336        0.040      340.309       14.241      861.427
06/14/2014  01:54:00      -25.238       55.690        2.420       28.395       37.905       28.426      806.282     1436.756      808.027        0.340        0.153       61.142       22.858        0.140      340.208       14.071      861.432
06/14/2014  01:55:00      -90.407       87.505      -40.348       45.642       54.183       28.542     2083.151     2935.805      814.637        1.164        0.292      125.819       22.906        0.033      340.178       14.018      861.432
06/14/2014  01:56:00      -57.436      -29.557       -6.847       40.941       32.704       27.802     1676.176     1069.551      772.956        0.387        0.176       64.595       21.928        0.115      340.268       14.172      861.434
06/14/2014  01:57:00       -2.517       -2.917       -8.531       18.617       18.383       19.184      346.580      337.937      368.042        0.057        0.053        3.853        9.025        5.488      340.189       14.036      861.445
06/14/2014  01:58:00       -7.393      -20.416        9.250       32.473       27.328       21.517     1054.523      746.794      462.981        0.141        0.113       21.713       22.873        1.110      340.205       14.064      861.460
06/14/2014  01:59:00       -6.706        6.247       -2.912       23.227       20.123       14.418      539.481      404.920      207.873        0.062        0.058        9.165       12.080        1.738      340.207       14.066      861.464
06/14/2014  02:00:00       35.850       32.537        8.147       39.059       26.831       23.042     1525.625      719.898      530.938        0.259        0.139       48.414       18.256        0.142      340.182       14.024      861.458
06/14/2014  02:01:00       29.450       71.530        0.404       30.158       35.502       22.853      909.510     1260.421      522.268        0.434        0.135       77.355       12.572        0.026      340.147       13.964      861.451
06/14/2014  02:02:00        5.785       25.753       13.551       37.794       35.753       18.509     1428.391     1278.282      342.602        0.196        0.152       26.395       14.835        0.316      340.167       14.001      861.450
06/14/2014  02:03:00      -64.381      -20.421       -0.924       30.147       30.992       15.852      908.860      960.514      251.276        0.334        0.106       67.542       16.264        0.058      340.188       14.035      861.449
06/14/2014  02:04:00      -56.259      -68.836        2.868       59.653       38.478       26.734     3558.527     1480.587      714.718        0.683        0.288       88.901       21.486        0.058      340.176       14.016      861.452
06/14/2014  02:05:00      -88.969      -79.835        7.349       59.508       38.302       29.112     3541.238     1467.017      847.524        1.010        0.293      119.537       32.100        0.072      340.094       13.877      861.456
06/14/2014  02:06:00     -104.371      -57.042        1.430       61.178       39.693       26.148     3742.776     1575.496      683.704        1.007        0.300      118.941       24.443        0.042      340.008       13.732      861.466
06/14/2014  02:07:00      -49.893      -67.970        1.919       43.128       25.499       20.106     1860.004      650.174      404.238        0.501        0.146       84.316       15.478        0.034      340.044       13.794      861.463
06/14/2014  02:08:00      -80.318      -56.488        1.539       38.127       26.584       16.297     1453.701      706.688      265.580        0.603        0.121       98.193       13.704        0.019      340.111       13.907      861.465
06/14/2014  02:09:00      -82.544      -44.553       -2.737       22.337       37.548       15.985      498.945     1409.851      255.523        0.548        0.108       93.800       10.504        0.013      340.014       13.742      861.456
06/14/2014  02:10:00      -80.070      -38.159        2.342       43.229       24.479       21.542     1868.704      599.214      464.061        0.540        0.147       88.698       25.458        0.082      339.953       13.639      861.465
06/14/2014  02:11:00      -60.622      -35.470       -0.343       51.030       31.046       23.413     2604.042      963.856      548.181        0.452        0.206       70.236       26.087        0.138      339.981       13.687      861.459
06/14/2014  02:12:00      -27.350      -16.719       19.945       55.715       44.764       25.981     3104.119     2003.824      675.008        0.360        0.289       32.056       30.690        0.917      339.947       13.630      861.456
06/14/2014  02:13:00      -72.499      -33.282        3.308       48.162       44.679       27.621     2319.558     1996.220      762.945        0.573        0.254       79.774       19.407        0.059      340.025       13.761      861.475
06/14/2014  02:14:00      -40.235      -27.603        0.233       39.490       28.495       21.728     1559.473      811.937      472.121        0.261        0.142       48.793       21.267        0.190      339.990       13.702      861.495
06/14/2014  02:15:00      -68.305      -17.341       -7.058       31.330       31.732       17.587      981.574     1006.908      309.289        0.366        0.115       70.472       12.466        0.031      340.110       13.904      861.507
06/14/2014  02:16:00      -94.889       -2.116      -13.715       37.437       27.853       16.818     1401.529      775.784      282.853        0.583        0.123       94.913       16.511        0.030      339.959       13.651      861.512
06/14/2014  02:17:00      -62.373      -49.844       -6.243       19.510       27.590       11.025      380.629      761.190      121.559        0.384        0.063       79.843        3.149        0.002      340.057       13.817      861.501
06/14/2014  02:18:00      -67.515      -32.303       -7.433       34.201       26.702       20.376     1169.676      712.989      415.177        0.398        0.115       74.845        6.588        0.008      340.078       13.852      861.486
06/14/2014  02:19:00     -161.902      -35.165      -12.929       42.950       36.375       25.185     1844.681     1323.175      634.270        1.571        0.190      165.677       21.440        0.017      339.984       13.692      861.481
06/14/2014  02:20:00      -92.453      -81.596       -3.746       62.418       32.433       22.013     3896.036     1051.899      484.560        1.032        0.272      123.311       20.364        0.027      339.990       13.702      861.484
06/14/2014  02:21:00      -91.339      -47.047        3.055       41.050       27.073       18.226     1685.064      732.936      332.193        0.666        0.138      102.743       21.177        0.042      339.962       13.655      861.497
06/14/2014  02:22:00      -43.499      -57.609       13.525       47.858       36.133       30.269     2290.387     1305.577      916.186        0.495        0.226       72.187       28.556        0.156      339.963       13.657      861.515
06/14/2014  02:23:00      -97.292      -93.322       13.630       71.942       56.818       39.343     5175.703     3228.230     1547.879        1.415        0.498      134.814       42.871        0.101      339.907       13.561      861.532
06/14/2014  02:24:00     -130.050      -78.457        6.161       56.468       36.060       30.353     3188.608     1300.329      921.310        1.426        0.271      151.884       27.748        0.033      339.847       13.462      861.548
06/14/2014  02:25:00     -114.076      -33.665       10.438       65.365       51.909       37.196     4272.578     2694.539     1383.534        1.130        0.418      118.940       38.484        0.105      339.847       13.461      861.573
06/14/2014  02:26:00     -157.220      -75.530      -17.152       48.925       51.123       27.323     2393.618     2613.532      746.524        1.823        0.288      174.422       20.236        0.013      339.872       13.501      861.590
06/14/2014  02:27:00      -94.462      -24.794        5.613       60.660       44.443       30.701     3679.632     1975.179      942.564        0.808        0.330       97.661       33.636        0.119      339.757       13.310      861.606
06/14/2014  02:28:00     -115.575      -58.663       -4.471       58.720       56.861       27.838     3448.056     3233.216      774.935        1.214        0.373      129.611       27.693        0.046      339.839       13.447      861.625
06/14/2014  02:29:00     -166.892      -89.494       -0.467       50.696       27.047       25.655     2570.057      731.522      658.167        1.991        0.198      189.373       25.869        0.019      339.925       13.591      861.637
06/14/2014  02:30:00      -20.059      -72.025        9.100       58.042       48.915       33.397     3368.898     2392.662     1115.359        0.627        0.344       74.766       28.413        0.144      339.931       13.604      861.633
06/14/2014  02:31:00     -153.749      -75.832       -5.699       84.325       64.204       27.660     7110.693     4122.092      765.059        2.071        0.600      171.433       32.547        0.036      339.933       13.606      861.646
06/14/2014  02:32:00     -109.707      -35.212       -6.183       49.050       59.182       31.070     2405.938     3502.462      965.363        1.009        0.344      115.219       15.086        0.017      339.891       13.534      861.665
06/14/2014  02:33:00     -151.691      -73.911      -11.728       79.305       49.599       34.980     6289.245     2460.016     1223.575        1.929        0.499      168.739       21.922        0.017      339.930       13.600      861.692
06/14/2014  02:34:00     -142.554     -105.662      -11.491       67.811       39.065       29.304     4598.315     1526.078      858.709        1.930        0.349      177.443       20.159        0.013      339.884       13.522      861.709
06/14/2014  02:35:00      -74.878      -49.615        6.071       69.370       60.730       39.598     4812.193     3688.161     1567.964        0.908        0.503       89.824       37.447        0.174      339.818       13.413      861.716
06/14/2014  02:36:00      -81.116      -15.420       -5.554       38.579       48.215       29.863     1488.349     2324.655      891.827        0.578        0.235       82.569       26.763        0.105      339.823       13.420      861.733
06/14/2014  02:37:00      -46.858      -21.093      -21.832       53.295       25.180       22.829     2840.380      634.032      521.170        0.356        0.200       51.387       24.467        0.227      339.836       13.442      861.744
06/14/2014  02:38:00       -0.314      -31.443        1.035       59.221       26.369       22.391     3507.128      695.310      501.370        0.285        0.235       31.444       19.847        0.398      339.793       13.369      861.749
06/14/2014  02:39:00     -208.252      -69.369      -10.672       57.135       51.914       31.937     3264.453     2695.017     1019.970        2.764        0.349      219.501       29.288        0.018      339.800       13.377      861.758
06/14/2014  02:40:00      -94.918      -43.987        2.537       50.593       44.773       27.793     2559.671     2004.603      772.428        0.814        0.267      104.615       27.944        0.071      339.811       13.400      861.756
06/14/2014  02:41:00      -65.932      -41.317       11.887       49.558       61.114       25.669     2455.961     3734.968      658.882        0.652        0.342       77.808       32.643        0.176      339.766       13.324      861.760
06/14/2014  02:42:00      -57.824      -46.617        8.791       40.381       29.915       22.616     1630.626      894.929      511.494        0.431        0.152       74.275       22.943        0.095      339.843       13.454      861.754
06/14/2014  02:43:00     -111.128      -25.165       -7.035       38.534       36.719       20.105     1484.889     1348.267      404.228        0.813        0.162      113.941       18.291        0.026      339.904       13.558      861.780
06/14/2014  02:44:00     -112.942      -48.273        1.600       84.579       40.001       34.674     7153.641     1600.041     1202.273        1.252        0.498      122.826       45.674        0.138      339.813       13.404      861.790
06/14/2014  02:45:00     -123.416      -23.457      -14.797       68.360       74.850       41.563     4673.048     5602.546     1727.500        1.400        0.600      125.625       35.524        0.080      339.848       13.461      861.781
06/14/2014  02:46:00     -103.459       21.382        4.104       91.789       73.920       41.185     8425.151     5464.187     1696.183        1.338        0.779      105.645       51.380        0.237      339.738       13.276      861.778
06/14/2014  02:47:00      -85.322      -35.078        7.834       67.836       39.474       30.569     4601.748     1558.219      934.444        0.783        0.355       92.251       21.350        0.054      339.748       13.297      861.774
06/14/2014  02:48:00      -69.740      -25.295       -8.349       52.113       29.902       17.413     2715.808      894.115      303.201        0.474        0.196       74.186       13.999        0.036      339.777       13.343      861.764
06/14/2014  02:49:00      -50.808      -63.045       -7.441       44.561       29.772       23.389     1985.675      886.361      547.030        0.501        0.171       80.970       14.454        0.032      339.685       13.188      861.767
06/14/2014  02:50:00     -120.137      -61.926       -2.267       83.020       61.923       38.801     6892.342     3834.469     1505.529        1.525        0.612      135.158       50.944        0.142      339.724       13.253      861.757
06/14/2014  02:51:00     -144.290      -50.254       -1.637       78.239       59.531       33.752     6121.324     3543.947     1139.187        1.707        0.540      152.791       39.844        0.068      339.782       13.351      861.762
06/14/2014  02:52:00      -88.600      -34.109        3.916       80.343       48.913       33.255     6455.008     2392.511     1105.877        0.949        0.498       94.939       40.826        0.185      339.680       13.179      861.744
06/14/2014  02:53:00     -130.408      -92.953       -1.799       87.275       74.036       50.121     7616.872     5481.347     2512.150        2.063        0.781      160.146       43.443        0.074      339.724       13.253      861.715
06/14/2014  02:54:00     -122.898     -117.834       17.982      120.404      107.625       59.573    14497.228    11583.125     3548.966        2.946        1.481      170.261       75.736        0.198      339.703       13.218      861.680
06/14/2014  02:55:00     -120.181      -69.388        8.156       94.444       63.344       35.602     8919.595     4012.490     1267.533        1.676        0.710      138.774       48.036        0.120      339.616       13.069      861.705
06/14/2014  02:56:00      -80.083      -42.172       -2.200       46.165       57.948       26.074     2131.211     3357.957      679.844        0.718        0.308       90.508       23.048        0.065      339.708       13.227      861.705
06/14/2014  02:57:00     -108.266      -59.831        3.290       78.302       49.753       41.000     6131.239     2475.408     1680.991        1.280        0.514      123.698       46.117        0.139      339.669       13.160      861.701
06/14/2014  02:58:00     -120.363      -57.167        7.780       96.646       72.384       42.345     9340.392     5239.468     1793.085        1.709        0.819      133.249       33.818        0.064      339.556       12.970      861.699
06/14/2014  02:59:00     -115.103      -62.004        1.165       94.387       48.169       43.116     8908.942     2320.253     1858.977        1.509        0.654      130.741       46.843        0.128      339.458       12.804      861.701
06/14/2014  03:00:00     -175.639      -85.492       -4.610       93.498       63.987       36.762     8741.847     4094.393     1351.448        2.618        0.709      195.340       37.425        0.037      339.457       12.800      861.699
06/14/2014  03:01:00     -146.056      -61.374       -3.334       60.843       53.557       29.855     3701.822     2868.363      891.320        1.628        0.373      158.427       30.675        0.037      339.475       12.832      861.689
06/14/2014  03:02:00      -64.189      -54.166       22.764       77.542       74.437       47.893     6012.836     5540.860     2293.753        1.071        0.692       83.989       51.132        0.371      339.435       12.765      861.680
06/14/2014  03:03:00     -167.908      -52.737       -5.386       68.962       53.856       33.302     4755.736     2900.501     1109.051        1.988        0.438      175.995       19.949        0.013      339.413       12.727      861.698
06/14/2014  03:04:00     -216.827      -56.018      -10.692      129.319       59.193       37.619    16723.404     3503.791     1415.213        3.595        1.082      223.946       46.716        0.044      339.429       12.754      861.698
06/14/2014  03:05:00     -248.320      -37.653      -21.265       68.888       62.601       30.988     4745.622     3918.883      960.279        3.658        0.481      251.158       23.941        0.009      339.440       12.772      861.695
06/14/2014  03:06:00     -180.389      -41.402      -16.198       87.719       71.513       44.690     7694.572     5114.124     1997.186        2.466        0.740      185.079       42.191        0.052      339.399       12.703      861.687
06/14/2014  03:07:00     -263.056      -23.541      -27.156       84.772       72.588       51.710     7186.282     5269.065     2673.894        4.281        0.756      264.107       45.767        0.030      339.432       12.757      861.690
06/14/2014  03:08:00     -236.092      -32.863      -16.573       75.365       64.315       39.685     5679.823     4136.405     1574.860        3.424        0.570      238.368       38.900        0.027      339.343       12.608      861.692
06/14/2014  03:09:00     -216.818      -62.529      -16.412       57.993       49.445       33.015     3363.172     2444.836     1089.998        2.904        0.345      225.654       32.519        0.021      339.295       12.527      861.702
06/14/2014  03:10:00     -294.137      -35.350      -28.502      133.696       89.856       48.053    17874.596     8074.110     2309.100        5.841        1.413      296.254       57.435        0.038      339.327       12.582      861.695
06/14/2014  03:11:00     -284.431      -54.901      -29.869       75.037       80.696       47.029     5630.626     6511.893     2211.763        4.958        0.718      289.681       34.025        0.014      339.290       12.516      861.684
06/14/2014  03:12:00     -227.618      -21.967      -20.717       88.592       74.490       49.510     7848.504     5548.745     2451.231        3.428        0.792      228.676       35.472        0.024      339.272       12.489      861.690
06/14/2014  03:13:00     -108.982       11.468       -5.789       67.315       39.682       30.807     4531.290     1574.667      949.066        0.955        0.353      109.584       26.956        0.061      339.321       12.574      861.680
06/14/2014  03:14:00     -159.666      -37.797       -7.502       81.000       77.608       39.083     6560.934     6022.959     1527.502        2.054        0.706      164.079       40.657        0.061      339.288       12.515      861.665
06/14/2014  03:15:00     -198.956      -23.685      -27.105       90.190       52.529       35.108     8134.289     2759.257     1232.569        2.650        0.606      200.361       34.667        0.030      339.258       12.467      861.659
06/14/2014  03:16:00     -210.667       -7.705      -36.239       62.968       68.133       31.962     3965.006     4642.047     1021.585        2.769        0.481      210.808       33.696        0.026      339.287       12.515      861.637
06/14/2014  03:17:00     -158.443      -40.705      -12.438      105.159       60.524       41.133    11058.518     3663.200     1691.903        2.166        0.821      163.588       48.960        0.090      339.244       12.442      861.598
06/14/2014  03:18:00      -64.516      -11.327        1.718       53.320       49.011       28.376     2843.059     2402.118      805.195        0.517        0.303       65.503       28.809        0.193      339.291       12.525      861.599
06/14/2014  03:19:00      -88.336      -29.124      -12.824       40.080       43.913       30.254     1606.402     1928.310      915.299        0.663        0.223       93.013       22.392        0.058      339.324       12.579      861.609
06/14/2014  03:20:00      -95.652       43.584      -13.895       54.494       56.535       25.725     2969.543     3196.262      661.765        0.903        0.341      105.114       27.933        0.071      339.323       12.576      861.606
06/14/2014  03:21:00     -112.566      172.171      -36.468       65.503       89.697       32.704     4290.594     8045.635     1069.528        2.852        0.670      205.704       24.459        0.014      339.242       12.438      861.622
06/14/2014  03:22:00     -130.896      155.524      -21.928       61.548       54.313       39.436     3788.138     2949.930     1555.227        2.505        0.415      203.277       34.184        0.028      339.287       12.513      861.637
06/14/2014  03:23:00      -85.966      135.526      -15.483       42.870       45.606       33.344     1837.847     2079.900     1111.824        1.551        0.251      160.491       25.383        0.025      339.266       12.481      861.644
06/14/2014  03:24:00     -106.194      143.508      -21.282       58.977       67.350       38.473     3478.317     4536.045     1480.147        2.091        0.475      178.527       39.360        0.049      339.234       12.426      861.650
06/14/2014  03:25:00     -128.732       80.747      -19.375       39.720       50.950       31.484     1577.656     2595.896      991.253        1.432        0.258      151.961       24.542        0.026      339.242       12.442      861.664
06/14/2014  03:26:00     -142.886       50.068      -17.215       75.356       63.934       32.986     5678.487     4087.504     1088.104        1.703        0.543      151.404       20.514        0.018      339.294       12.528      861.668
06/14/2014  03:27:00     -105.925      137.169      -23.963       45.211       79.441       42.733     2044.006     6310.846     1826.072        2.039        0.509      173.307       27.036        0.024      339.212       12.389      861.668
06/14/2014  03:28:00      -74.569       66.343       -1.656       30.634       51.743       32.094      938.457     2677.303     1030.031        0.730        0.232       99.810       13.108        0.017      339.243       12.444      861.682
06/14/2014  03:29:00      -91.610       22.672      -12.029       66.929       57.020       32.191     4479.494     3251.270     1036.254        0.891        0.438       94.374       31.620        0.112      339.221       12.407      861.695
06/14/2014  03:30:00     -123.347      -42.357      -17.615       66.334       50.898       29.921     4400.221     2590.586      895.237        1.260        0.394      130.417       26.238        0.040      339.179       12.334      861.697
06/14/2014  03:31:00      -83.646      -13.876      -12.978       64.023       54.792       43.537     4098.985     3002.152     1895.430        0.818        0.450       84.790       36.612        0.186      339.186       12.346      861.700
06/14/2014  03:32:00      -85.280       45.898      -12.901       51.711       79.374       28.423     2674.031     6300.311      807.886        0.966        0.489       96.847       22.582        0.054      339.240       12.437      861.693
06/14/2014  03:33:00      -42.328       27.017        7.574       49.630       34.842       25.035     2463.088     1213.992      626.735        0.344        0.215       50.215       27.557        0.301      339.150       12.286      861.676
06/14/2014  03:34:00     -101.583       48.530       -9.754       62.817       43.469       28.059     3945.913     1889.543      787.322        0.969        0.331      112.580       25.442        0.051      339.241       12.439      861.679
06/14/2014  03:35:00      -59.630       14.753       -8.332       35.234       33.298       20.103     1241.431     1108.737      404.114        0.330        0.138       61.428       16.041        0.068      339.293       12.527      861.701
06/14/2014  03:36:00      -85.530       11.387       -6.630       56.224       39.333       20.416     3161.127     1547.110      416.825        0.631        0.256       86.284       22.158        0.066      339.325       12.582      861.717
06/14/2014  03:37:00     -132.184       72.290      -23.073       70.543       57.906       28.025     4976.291     3353.069      785.374        1.617        0.456      150.660       26.932        0.032      339.300       12.538      861.738
06/14/2014  03:38:00     -116.668      127.200      -29.068       30.749       47.155       32.503      945.473     2223.624     1056.415        1.743        0.211      172.602       20.638        0.014      339.200       12.369      861.734
06/14/2014  03:39:00     -121.295       34.292      -20.949       46.173       72.271       28.839     2131.912     5223.159      831.702        1.226        0.409      126.049       21.640        0.029      339.405       12.714      861.730
06/14/2014  03:40:00     -161.302      -52.720       -0.147       75.645       72.915       35.878     5722.135     5316.618     1287.264        2.056        0.616      169.699       35.733        0.044      339.213       12.390      861.720
06/14/2014  03:41:00     -148.533       66.983       -3.403       93.786       50.397       40.191     8795.794     2539.879     1615.326        1.975        0.648      162.938       44.315        0.074      339.248       12.449      861.729
06/14/2014  03:42:00     -178.234       29.558      -13.767       52.872       71.977       38.991     2795.419     5180.720     1520.310        2.116        0.475      180.669       30.548        0.029      339.269       12.485      861.731
06/14/2014  03:43:00     -256.798      -74.437      -23.148      139.977       71.765       52.556    19593.653     5150.209     2762.153        4.976        1.375      267.369       66.842        0.062      339.362       12.639      861.727
06/14/2014  03:44:00     -177.766      -85.358      -14.159       87.260       81.620       48.050     7614.272     6661.793     2308.779        2.783        0.829      197.197       46.306        0.055      339.472       12.827      861.743
06/14/2014  03:45:00     -164.280      -34.628      -11.060       88.549       83.570       47.989     7840.935     6983.991     2302.944        2.272        0.856      167.890       49.215        0.086      339.406       12.714      861.749
06/14/2014  03:46:00     -112.178        7.818      -17.877       65.513       62.366       32.143     4291.939     3889.548     1033.195        1.109        0.461      112.450       23.039        0.042      339.408       12.719      861.745
06/14/2014  03:47:00     -134.641       -2.897       -5.305       65.015       65.474       36.864     4226.951     4286.845     1358.972        1.402        0.494      134.672       33.522        0.062      339.441       12.776      861.742
06/14/2014  03:48:00     -119.682       24.026      -12.558       65.391       59.998       36.625     4276.019     3599.784     1341.422        1.214        0.461      122.070       36.206        0.088      339.362       12.643      861.758
06/14/2014  03:49:00     -146.957       51.110      -17.237       45.010       48.706       29.971     2025.884     2372.271      898.263        1.490        0.265      155.591       18.937        0.015      339.312       12.559      861.773
06/14/2014  03:50:00     -126.004      -44.029       -1.328      105.953       74.211       48.724    11226.131     5507.263     2373.985        1.846        0.955      133.475       55.557        0.173      339.331       12.590      861.761
06/14/2014  03:51:00     -239.621      -82.296       -3.701       90.553       75.127       40.893     8199.874     5644.000     1672.263        3.986        0.776      253.360       33.698        0.018      339.415       12.729      861.762
06/14/2014  03:52:00     -221.129     -108.616      -12.393       97.133       82.141       43.594     9434.806     6747.126     1900.450        3.946        0.904      246.364       43.960        0.032      339.394       12.693      861.770
06/14/2014  03:53:00     -127.915      -44.470       -5.569       84.962       68.543       45.534     7218.519     4698.157     2073.300        1.618        0.699      135.424       46.994        0.120      339.438       12.769      861.773
06/14/2014  03:54:00     -224.581       16.998      -30.880       75.181       87.867       45.769     5652.228     7720.615     2094.827        3.357        0.773      225.224       32.619        0.021      339.458       12.802      861.780
06/14/2014  03:55:00     -135.188       26.213       -6.277       52.599       42.274       28.906     2766.652     1787.125      835.575        1.219        0.269      137.705       20.248        0.022      339.574       13.001      861.775
06/14/2014  03:56:00     -196.947      -38.451      -20.917       55.325       73.053       32.271     3060.892     5336.727     1041.407        2.507        0.472      200.665       23.362        0.014      339.392       12.691      861.771
06/14/2014  03:57:00     -238.801      -99.771      -12.662       86.985       85.651       47.288     7566.465     7336.031     2236.161        4.214        0.857      258.806       41.745        0.026      339.279       12.499      861.767
06/14/2014  03:58:00     -231.317      -83.395      -15.033       88.413       70.121       47.927     7816.827     4916.985     2297.038        3.786        0.752      245.891       47.137        0.037      339.239       12.433      861.748
06/14/2014  03:59:00     -298.261      -60.146      -23.874       98.908       80.534       43.495     9782.815     6485.696     1891.829        5.565        0.908      304.265       40.775        0.018      339.212       12.387      861.746
